Time;durP1;ratioP1;P1;durP2;ratioP2;P2;SDS_P1;SDS_P2;PMS_P1;PMS_P2;Temp;Humidity;BMP_temperature;BMP_pressure;BME280_temperature;BME280_humidity;BME280_pressure;Samples;Min_cycle;Max_cycle;Signal;HPM_P1;HPM_P2
2023/02/01 00:01:28;;;;;;;67.50;44.30;;;;;;;-0.26;82.72;99445.48;105814;1254;59673;-76
2023/02/01 00:03:56;;;;;;;63.10;43.20;;;;;;;-0.25;82.72;99443.85;105608;1259;65632;-75
2023/02/01 00:06:25;;;;;;;64.00;42.30;;;;;;;-0.24;82.75;99441.58;105620;1261;59780;-75
2023/02/01 00:08:54;;;;;;;61.10;42.60;;;;;;;-0.23;82.73;99440.66;105513;1258;65519;-74
2023/02/01 00:11:22;;;;;;;64.10;42.40;;;;;;;-0.21;82.81;99444.33;105693;1260;59628;-75
2023/02/01 00:13:51;;;;;;;61.50;42.50;;;;;;;-0.20;82.77;99439.60;105669;1257;59669;-73
2023/02/01 00:16:29;;;;;;;69.60;44.50;;;;;;;-0.19;82.82;99439.73;105834;1259;65457;-74
2023/02/01 00:19:02;;;;;;;61.60;42.00;;;;;;;-0.17;82.86;99437.03;105630;1260;60031;-77
2023/02/01 00:21:31;;;;;;;66.90;45.20;;;;;;;-0.15;82.87;99431.45;105706;1257;64794;-75
2023/02/01 00:23:59;;;;;;;65.80;44.40;;;;;;;-0.14;82.88;99429.66;105561;1256;60450;-75
2023/02/01 00:26:35;;;;;;;58.50;40.60;;;;;;;-0.13;82.95;99427.86;105513;1255;60323;-76
2023/02/01 00:29:05;;;;;;;59.60;41.60;;;;;;;-0.13;82.85;99427.34;105517;1259;66725;-74
2023/02/01 00:31:33;;;;;;;61.30;42.00;;;;;;;-0.13;82.87;99427.17;105660;1262;60479;-78
2023/02/01 00:34:02;;;;;;;64.10;43.40;;;;;;;-0.13;82.90;99426.45;105705;1257;65368;-79
2023/02/01 00:36:31;;;;;;;68.50;44.70;;;;;;;-0.11;82.92;99424.45;105517;1256;60493;-81
2023/02/01 00:38:59;;;;;;;65.90;44.10;;;;;;;-0.09;82.95;99421.77;105538;1256;60371;-77
2023/02/01 00:41:28;;;;;;;65.80;44.20;;;;;;;-0.07;82.96;99422.16;105648;1258;66887;-78
2023/02/01 00:43:56;;;;;;;66.30;44.90;;;;;;;-0.05;82.97;99422.27;105554;1256;60537;-76
2023/02/01 00:46:25;;;;;;;65.70;43.60;;;;;;;-0.04;82.99;99418.25;105643;1255;65681;-75
2023/02/01 00:48:53;;;;;;;63.80;43.70;;;;;;;-0.04;82.88;99416.67;105501;1260;60447;-75
2023/02/01 00:51:23;;;;;;;62.50;43.40;;;;;;;-0.04;82.95;99414.23;105743;1257;60335;-79
2023/02/01 00:53:51;;;;;;;68.20;46.00;;;;;;;-0.04;82.87;99408.33;105662;1256;66803;-78
2023/02/01 00:56:20;;;;;;;65.40;45.60;;;;;;;-0.04;82.95;99411.13;105394;1257;60354;-77
2023/02/01 00:58:48;;;;;;;63.80;44.90;;;;;;;-0.04;82.89;99410.91;105680;1256;65591;-78
2023/02/01 01:01:24;;;;;;;65.30;44.00;;;;;;;-0.03;82.92;99405.88;105570;1256;60550;-77
2023/02/01 01:03:55;;;;;;;64.00;43.30;;;;;;;-0.02;82.94;99402.70;105394;1257;60443;-78
2023/02/01 01:06:31;;;;;;;61.10;41.10;;;;;;;-0.02;82.97;99400.45;105691;1255;65421;-77
2023/02/01 01:09:01;;;;;;;61.60;41.50;;;;;;;-0.00;82.99;99400.21;105494;1256;60464;-77
2023/02/01 01:11:32;;;;;;;60.70;41.70;;;;;;;0.02;82.97;99400.45;105406;1264;64577;-75
2023/02/01 01:14:00;;;;;;;54.70;39.20;;;;;;;0.05;83.03;99396.48;105545;1257;60386;-77
2023/02/01 01:16:30;;;;;;;54.00;37.90;;;;;;;0.08;83.10;99397.38;105715;1257;60492;-75
2023/02/01 01:18:58;;;;;;;56.10;37.90;;;;;;;0.09;83.09;99395.73;105667;1259;66184;-77
2023/02/01 01:21:27;;;;;;;56.30;39.20;;;;;;;0.11;83.10;99395.14;105766;1256;60411;-77
2023/02/01 01:23:55;;;;;;;51.40;34.80;;;;;;;0.13;83.18;99396.91;105698;1257;65615;-79
2023/02/01 01:26:26;;;;;;;44.10;30.80;;;;;;;0.16;83.16;99400.76;105718;1259;60890;-78
2023/02/01 01:28:56;;;;;;;41.60;29.50;;;;;;;0.18;83.14;99401.86;105599;1257;60450;-76
2023/02/01 01:31:24;;;;;;;37.60;26.90;;;;;;;0.19;83.17;99401.44;105518;1256;65513;-74
2023/02/01 01:33:56;;;;;;;37.30;26.90;;;;;;;0.20;83.20;99401.71;105512;1259;60512;-75
2023/02/01 01:36:25;;;;;;;34.60;24.60;;;;;;;0.23;83.24;99405.07;105575;1259;64582;-76
2023/02/01 01:38:54;;;;;;;32.50;23.70;;;;;;;0.25;83.26;99404.74;105451;1257;60400;-79
2023/02/01 01:41:24;;;;;;;27.80;21.90;;;;;;;0.28;83.39;99404.27;105522;1257;60367;-78
2023/02/01 01:44:01;;;;;;;29.30;21.80;;;;;;;0.29;83.34;99401.27;105297;1255;65447;-78
2023/02/01 01:46:34;;;;;;;24.30;18.00;;;;;;;0.32;83.39;99399.42;105695;1257;60463;-79
2023/02/01 01:49:09;;;;;;;26.40;19.30;;;;;;;0.33;83.33;99401.60;105559;1256;65549;-77
2023/02/01 01:51:42;;;;;;;24.60;17.70;;;;;;;0.34;83.42;99398.23;105692;1256;60420;-78
2023/02/01 01:54:13;;;;;;;;;;;;;;;0.36;83.43;99394.33;105356;1257;60528;-76
2023/02/01 01:56:41;;;;;;;24.30;17.70;;;;;;;0.36;83.48;99391.70;105591;1260;66542;-74
2023/02/01 01:59:09;;;;;;;25.60;18.00;;;;;;;0.36;83.50;99389.11;105698;1259;60626;-75
2023/02/01 02:01:38;;;;;;;25.30;18.50;;;;;;;0.36;83.50;99391.52;105630;1256;65510;-76
2023/02/01 02:04:06;;;;;;;23.40;17.60;;;;;;;0.38;83.53;99393.18;105561;1257;60422;-75
2023/02/01 02:06:45;;;;;;;23.40;18.30;;;;;;;0.39;83.47;99396.97;105648;1257;60463;-75
2023/02/01 02:09:14;;;;;;;24.70;17.90;;;;;;;0.39;83.42;99394.70;105694;1257;66803;-75
2023/02/01 02:11:42;;;;;;;25.80;17.10;;;;;;;0.39;83.45;99394.16;105794;1256;60482;-74
2023/02/01 02:14:11;;;;;;;19.20;15.60;;;;;;;0.40;83.47;99392.55;105767;1257;64479;-76
2023/02/01 02:16:39;;;;;;;21.40;16.60;;;;;;;0.41;83.42;99392.48;105678;1258;60506;-75
2023/02/01 02:19:34;;;;;;;23.60;16.20;;;;;;;0.42;83.40;99394.02;105756;1256;60528;-76
2023/02/01 02:22:30;;;;;;;20.30;15.10;;;;;;;0.43;83.40;99396.70;105729;1259;66803;-78
2023/02/01 02:25:29;;;;;;;21.80;15.60;;;;;;;0.44;83.42;99396.85;105854;1257;60549;-74
2023/02/01 02:28:08;;;;;;;21.50;16.00;;;;;;;0.44;83.39;99399.09;105458;1257;67156;-76
2023/02/01 02:30:43;;;;;;;20.30;15.10;;;;;;;0.45;83.42;99399.02;105328;1257;60452;-77
2023/02/01 02:33:17;;;;;;;20.20;14.50;;;;;;;0.46;83.41;99398.63;105730;1256;60384;-77
2023/02/01 02:36:20;;;;;;;17.90;13.60;;;;;;;0.47;83.53;99399.58;105726;1259;66754;-77
2023/02/01 02:39:16;;;;;;;19.20;14.30;;;;;;;0.49;83.55;99400.02;105669;1260;60519;-76
2023/02/01 02:48:15;;;;;;;17.10;13.90;;;;;;;0.55;83.59;99410.92;105636;1255;60544;-77
2023/02/01 03:04:56;;;;;;;25.90;17.60;;;;;;;0.64;83.57;99405.61;105501;1259;66930;-76
2023/02/01 03:07:52;;;;;;;26.10;19.20;;;;;;;0.65;83.57;99405.56;105438;1259;60346;-77
2023/02/01 03:10:26;;;;;;;26.30;19.10;;;;;;;0.66;83.49;99403.77;105635;1257;65580;-76
2023/02/01 03:13:00;;;;;;;20.80;14.90;;;;;;;0.67;83.45;99404.60;105784;1261;60387;-76
2023/02/01 03:15:34;;;;;;;;;;;;;;;0.67;83.47;99401.13;105791;1257;60410;-75
2023/02/01 03:18:04;;;;;;;;;;;;;;;0.67;83.40;99405.48;105639;1260;66837;-78
2023/02/01 03:20:32;;;;;;;18.10;13.70;;;;;;;0.65;83.46;99401.04;105445;1257;60522;-77
2023/02/01 03:23:01;;;;;;;17.80;13.30;;;;;;;0.66;83.43;99405.14;105643;1261;66204;-77
2023/02/01 03:25:30;;;;;;;15.60;11.50;;;;;;;0.66;83.40;99402.71;105788;1257;60362;-77
2023/02/01 03:28:08;;;;;;;17.50;12.20;;;;;;;0.67;83.44;99404.25;105601;1256;60776;-77
2023/02/01 03:30:43;;;;;;;15.90;10.90;;;;;;;0.67;83.41;99405.12;105748;1258;66731;-74
2023/02/01 03:33:22;;;;;;;18.70;12.00;;;;;;;0.68;83.33;99408.23;105564;1257;60557;-74
2023/02/01 03:35:56;;;;;;;17.00;11.80;;;;;;;0.68;83.35;99407.31;105613;1257;65609;-74
2023/02/01 03:38:31;;;;;;;17.00;12.10;;;;;;;0.71;83.37;99408.75;105509;1257;60433;-74
2023/02/01 03:41:18;;;;;;;17.90;12.20;;;;;;;0.71;83.31;99406.81;105523;1262;60448;-74
2023/02/01 03:43:59;;;;;;;21.20;12.30;;;;;;;0.72;83.25;99409.16;105672;1255;66669;-75
2023/02/01 03:46:33;;;;;;;16.90;12.50;;;;;;;0.73;83.21;99413.10;105732;1259;60434;-75
2023/02/01 03:49:04;;;;;;;15.00;11.50;;;;;;;0.74;83.18;99411.48;105646;1257;65613;-75
2023/02/01 03:51:32;;;;;;;16.50;11.50;;;;;;;0.74;83.12;99410.61;105581;1262;60454;-74
2023/02/01 03:54:02;;;;;;;15.80;11.70;;;;;;;0.73;83.12;99409.80;105561;1256;60463;-75
2023/02/01 03:56:30;;;;;;;16.20;11.10;;;;;;;0.73;83.06;99412.40;105580;1257;66761;-75
2023/02/01 03:58:58;;;;;;;16.10;10.80;;;;;;;0.73;83.02;99411.71;105634;1262;60502;-75
2023/02/01 04:01:30;;;;;;;16.50;11.00;;;;;;;0.73;83.00;99413.29;105638;1257;64499;-74
2023/02/01 04:03:59;;;;;;;15.60;10.80;;;;;;;0.73;82.91;99415.35;105650;1256;60464;-73
2023/02/01 04:06:27;;;;;;;17.90;11.30;;;;;;;0.74;82.88;99418.42;105849;1256;60434;-77
2023/02/01 04:08:59;;;;;;;16.40;10.90;;;;;;;0.74;82.84;99417.04;105892;1259;66019;-76
2023/02/01 04:11:28;;;;;;;17.40;10.70;;;;;;;0.75;82.83;99416.46;105760;1256;60541;-76
2023/02/01 04:13:58;;;;;;;17.10;12.00;;;;;;;0.74;82.66;99419.97;105916;1257;65594;-76
2023/02/01 04:16:26;;;;;;;16.00;10.30;;;;;;;0.73;82.73;99424.55;105396;1257;60426;-75
2023/02/01 04:18:54;;;;;;;15.10;10.40;;;;;;;0.72;82.65;99424.63;105598;1257;60624;-76
2023/02/01 04:21:22;;;;;;;18.80;13.20;;;;;;;0.71;82.59;99428.98;105794;1257;64925;-76
2023/02/01 04:23:50;;;;;;;16.00;11.10;;;;;;;0.71;82.54;99433.19;105593;1255;60453;-77
2023/02/01 04:26:19;;;;;;;17.80;12.10;;;;;;;0.70;82.59;99433.55;105632;1256;64911;-78
2023/02/01 04:28:50;;;;;;;17.40;11.30;;;;;;;0.70;82.49;99434.42;105764;1257;60435;-74
2023/02/01 04:31:25;;;;;;;23.80;12.80;;;;;;;0.68;82.46;99434.52;105732;1257;60548;-75
2023/02/01 04:33:54;;;;;;;18.10;11.60;;;;;;;0.69;82.43;99436.92;105896;1255;66413;-77
2023/02/01 04:36:23;;;;;;;20.50;11.20;;;;;;;0.70;82.33;99438.78;105383;1262;60473;-75
2023/02/01 04:38:51;;;;;;;16.80;10.00;;;;;;;0.69;82.23;99438.13;105549;1256;65190;-76
2023/02/01 04:41:19;;;;;;;16.00;10.10;;;;;;;0.68;82.19;99443.53;105659;1259;60410;-76
2023/02/01 04:43:48;;;;;;;18.80;10.30;;;;;;;0.68;82.11;99441.10;105740;1261;60448;-76
2023/02/01 04:46:16;;;;;;;14.90;9.50;;;;;;;0.69;82.09;99442.45;105515;1256;65784;-77
2023/02/01 04:48:44;;;;;;;13.50;9.10;;;;;;;0.69;82.04;99441.40;105546;1257;60547;-76
2023/02/01 04:51:12;;;;;;;14.50;9.50;;;;;;;0.70;82.00;99439.60;105425;1260;65568;-76
2023/02/01 04:53:41;;;;;;;13.80;9.10;;;;;;;0.70;81.94;99439.25;105576;1257;60424;-76
2023/02/01 04:56:09;;;;;;;11.00;7.80;;;;;;;0.70;81.80;99438.02;105667;1259;60467;-76
2023/02/01 04:58:37;;;;;;;14.30;9.00;;;;;;;0.70;81.72;99438.93;105507;1256;66591;-75
2023/02/01 05:01:06;;;;;;;15.10;9.20;;;;;;;0.68;81.64;99441.47;105487;1258;60422;-76
2023/02/01 05:03:34;;;;;;;14.60;9.60;;;;;;;0.66;81.56;99437.23;106022;1254;64295;-76
2023/02/01 05:06:04;;;;;;;14.30;8.80;;;;;;;0.65;81.59;99440.04;105677;1256;60425;-76
2023/02/01 05:08:33;;;;;;;14.10;9.40;;;;;;;0.65;81.52;99442.82;106144;1256;60470;-76
2023/02/01 05:11:04;;;;;;;14.80;9.40;;;;;;;0.64;81.35;99444.46;105816;1256;66710;-79
2023/02/01 05:13:48;;;;;;;15.80;9.80;;;;;;;0.61;81.28;99448.95;105555;1263;60343;-76
2023/02/01 05:16:17;;;;;;;13.60;9.40;;;;;;;0.60;81.32;99446.60;105626;1257;65550;-79
2023/02/01 05:18:45;;;;;;;16.60;9.60;;;;;;;0.59;81.27;99445.77;105668;1256;60460;-76
2023/02/01 05:21:14;;;;;;;17.10;10.40;;;;;;;0.57;81.17;99442.23;106327;1257;60499;-77
2023/02/01 05:26:34;;;;;;;19.90;13.80;;;;;;;0.50;81.11;99443.41;105773;1259;59927;-74
2023/02/01 05:29:03;;;;;;;23.20;14.60;;;;;;;0.50;81.04;99445.85;105572;1256;65626;-86
2023/02/01 05:31:31;;;;;;;25.80;17.00;;;;;;;0.50;80.97;99444.48;105620;1257;60460;-82
2023/02/01 05:34:00;;;;;;;28.10;16.60;;;;;;;0.49;80.90;99445.05;105440;1255;60537;-79
2023/02/01 05:36:28;;;;;;;27.50;17.00;;;;;;;0.47;80.95;99447.20;105610;1256;65980;-78
2023/02/01 05:38:58;;;;;;;26.90;15.60;;;;;;;0.46;80.78;99447.84;105494;1256;60464;-85
2023/02/01 05:41:26;;;;;;;26.50;15.80;;;;;;;0.43;80.70;99451.63;105444;1259;65033;-80
2023/02/01 05:43:54;;;;;;;25.30;14.80;;;;;;;0.42;80.70;99455.33;105454;1262;61927;-85
2023/02/01 05:46:22;;;;;;;22.90;14.20;;;;;;;0.41;80.71;99457.61;105713;1256;60633;-77
2023/02/01 05:48:50;;;;;;;22.20;14.40;;;;;;;0.39;80.58;99457.19;105599;1260;66598;-81
2023/02/01 05:51:19;;;;;;;27.60;15.50;;;;;;;0.35;80.43;99458.09;105585;1256;60546;-85
2023/02/01 05:53:47;;;;;;;23.40;15.50;;;;;;;0.29;80.32;99461.70;105726;1257;65560;-86
2023/02/01 05:56:15;;;;;;;24.40;16.10;;;;;;;0.22;80.18;99463.25;105577;1256;60323;-75
2023/02/01 05:58:43;;;;;;;23.70;15.30;;;;;;;0.18;80.23;99463.64;105860;1259;60349;-77
2023/02/01 08:15:23;;;;;;;24.30;14.50;;;;;;;0.01;84.88;99471.89;103395;1284;605099;-74
2023/02/01 08:17:51;;;;;;;25.10;14.30;;;;;;;0.63;82.88;99462.48;104737;1270;139163;-74
2023/02/01 08:20:21;;;;;;;21.70;14.90;;;;;;;0.66;82.58;99463.05;105247;1266;59295;-74
2023/02/01 08:22:50;;;;;;;23.80;14.10;;;;;;;0.66;82.32;99461.79;105152;1270;65092;-74
2023/02/01 08:25:21;;;;;;;28.30;15.40;;;;;;;0.69;82.23;99461.83;105015;1265;60358;-76
2023/02/01 08:27:51;;;;;;;22.80;13.50;;;;;;;0.73;82.14;99467.30;105060;1266;64763;-78
2023/02/01 08:30:19;;;;;;;19.10;12.60;;;;;;;0.76;81.95;99463.68;105018;1270;59269;-81
2023/02/01 08:32:47;;;;;;;26.30;14.70;;;;;;;0.79;81.78;99461.66;105047;1270;59339;-79
2023/02/01 08:35:16;;;;;;;17.10;11.20;;;;;;;0.82;81.69;99458.16;105068;1265;65258;-79
2023/02/01 08:37:44;;;;;;;19.40;11.20;;;;;;;0.85;81.46;99454.52;104994;1264;59193;-77
2023/02/01 08:40:13;;;;;;;20.10;11.50;;;;;;;0.87;81.33;99450.98;105176;1267;65344;-80
2023/02/01 08:42:50;;;;;;;19.00;11.80;;;;;;;0.90;81.17;99453.96;105231;1270;59639;-81
2023/02/01 08:45:19;;;;;;;19.70;11.80;;;;;;;0.91;81.03;99461.87;105142;1270;59580;-78
2023/02/01 08:47:55;;;;;;;16.90;10.90;;;;;;;0.91;80.81;99455.48;105381;1266;65744;-84
2023/02/01 08:50:24;;;;;;;16.30;10.80;;;;;;;0.87;80.58;99448.56;105687;1266;59838;-77
2023/02/01 08:53:04;;;;;;;20.00;10.70;;;;;;;0.85;80.43;99446.92;105429;1265;72667;-79
2023/02/01 08:55:36;;;;;;;19.30;10.40;;;;;;;0.84;80.26;99440.70;105943;1257;59630;-75
2023/02/01 08:58:04;;;;;;;21.50;11.60;;;;;;;0.86;80.16;99436.48;105820;1258;59643;-78
2023/02/01 09:00:34;;;;;;;20.70;13.30;;;;;;;0.88;80.17;99429.77;105783;1260;65973;-76
2023/02/01 09:03:02;;;;;;;21.90;12.90;;;;;;;0.94;80.13;99423.39;105683;1257;59977;-78
2023/02/01 09:05:30;;;;;;;23.70;13.90;;;;;;;0.97;80.01;99424.06;105476;1262;65685;-75
2023/02/01 09:08:16;;;;;;;25.90;13.40;;;;;;;1.02;80.00;99427.26;105498;1258;60123;-77
2023/02/01 09:10:44;;;;;;;25.60;13.70;;;;;;;1.07;79.88;99424.41;105826;1256;59711;-75
2023/02/01 09:13:13;;;;;;;21.00;12.90;;;;;;;1.10;79.77;99424.55;105709;1257;66069;-74
2023/02/01 09:15:41;;;;;;;21.50;12.90;;;;;;;1.14;79.56;99423.98;105826;1260;59618;-76
2023/02/01 09:18:09;;;;;;;25.30;13.70;;;;;;;1.17;79.48;99422.47;105600;1257;65577;-75
2023/02/01 09:20:38;;;;;;;20.80;12.50;;;;;;;1.22;79.39;99425.47;105862;1256;59609;-74
2023/02/01 09:23:07;;;;;;;21.20;11.50;;;;;;;1.27;79.29;99419.13;105629;1257;59814;-71
2023/02/01 09:25:38;;;;;;;19.30;11.70;;;;;;;1.30;79.08;99417.58;105898;1257;66022;-77
2023/02/01 09:28:07;;;;;;;20.10;12.40;;;;;;;1.31;78.86;99417.13;105835;1257;59913;-78
2023/02/01 09:30:36;;;;;;;17.10;11.50;;;;;;;1.34;78.84;99412.81;105627;1257;65385;-77
2023/02/01 09:33:05;;;;;;;20.20;12.10;;;;;;;1.40;78.75;99406.95;105716;1256;59630;-76
2023/02/01 09:35:33;;;;;;;19.20;11.50;;;;;;;1.44;78.66;99398.70;105494;1257;59679;-73
2023/02/01 09:38:01;;;;;;;25.80;12.20;;;;;;;1.48;78.52;99396.91;105755;1256;65536;-75
2023/02/01 09:40:30;;;;;;;20.30;12.50;;;;;;;1.53;78.19;99386.41;105856;1260;60081;-79
2023/02/01 09:43:11;;;;;;;22.30;13.00;;;;;;;1.58;78.19;99380.20;105727;1257;65697;-72
2023/02/01 09:45:52;;;;;;;18.50;11.00;;;;;;;1.68;78.14;99382.92;105552;1256;59640;-74
2023/02/01 09:48:24;;;;;;;20.00;11.10;;;;;;;1.78;77.88;99382.70;105483;1259;59673;-77
2023/02/01 09:50:57;;;;;;;19.40;10.10;;;;;;;1.87;77.80;99383.35;105636;1263;64919;-79
2023/02/01 09:53:29;;;;;;;;;;;;;;;1.96;77.56;99386.61;105782;1256;59862;-74
2023/02/01 09:56:06;;;;;;;18.20;12.20;;;;;;;2.02;77.26;99390.08;105609;1261;65223;-74
2023/02/01 09:58:40;;;;;;;20.90;13.20;;;;;;;2.03;76.86;99388.30;105711;1256;59542;-74
2023/02/01 10:01:23;;;;;;;19.20;12.70;;;;;;;2.07;76.76;99389.66;105542;1256;59618;-76
2023/02/01 10:04:07;;;;;;;21.30;11.70;;;;;;;2.16;76.76;99384.89;105734;1256;64939;-73
2023/02/01 10:06:36;;;;;;;18.70;12.70;;;;;;;2.29;76.42;99375.56;105229;1254;60167;-69
2023/02/01 10:09:16;;;;;;;19.40;12.60;;;;;;;2.38;76.09;99369.67;105854;1257;65637;-74
2023/02/01 10:12:04;;;;;;;18.90;11.30;;;;;;;2.48;75.76;99366.27;105661;1256;59570;-69
2023/02/01 10:14:51;;;;;;;17.70;10.70;;;;;;;2.60;75.38;99365.66;105954;1256;59497;-71
2023/02/01 10:17:57;;;;;;;17.30;10.80;;;;;;;2.72;74.88;99365.10;106062;1259;65146;-72
2023/02/01 10:20:56;;;;;;;18.40;11.70;;;;;;;2.88;74.64;99358.48;105648;1259;59569;-75
2023/02/01 10:23:27;;;;;;;18.20;10.70;;;;;;;3.05;74.30;99352.70;105658;1256;65889;-75
2023/02/01 10:26:02;;;;;;;19.70;10.10;;;;;;;3.23;74.00;99351.33;106244;1256;59782;-72
2023/02/01 10:28:39;;;;;;;16.30;8.40;;;;;;;3.37;73.36;99349.71;106014;1257;59690;-74
2023/02/01 10:31:39;;;;;;;13.40;8.40;;;;;;;3.50;72.66;99345.55;106156;1254;63217;-71
2023/02/01 10:34:16;;;;;;;12.90;7.80;;;;;;;3.62;72.22;99342.67;105742;1254;59833;-71
2023/02/01 10:37:10;;;;;;;13.80;7.50;;;;;;;3.75;71.61;99341.27;105792;1254;65395;-69
2023/02/01 10:39:39;;;;;;;11.70;6.80;;;;;;;3.86;70.80;99341.91;105825;1258;59665;-71
2023/02/01 10:42:07;;;;;;;15.20;6.90;;;;;;;3.94;70.18;99338.19;105690;1254;59826;-77
2023/02/01 10:44:40;;;;;;;12.60;7.10;;;;;;;4.06;69.60;99334.63;106017;1260;65676;-75
2023/02/01 10:47:10;;;;;;;11.00;6.90;;;;;;;4.20;69.07;99328.77;105906;1259;59903;-74
2023/02/01 10:49:52;;;;;;;12.90;7.00;;;;;;;4.28;68.11;99326.44;105834;1253;64294;-79
2023/02/01 10:52:30;;;;;;;16.80;7.90;;;;;;;4.36;67.50;99325.23;105612;1253;59647;-81
2023/02/01 10:55:36;;;;;;;13.50;7.80;;;;;;;4.42;67.09;99322.50;106025;1254;59874;-76
2023/02/01 10:58:20;;;;;;;12.30;6.00;;;;;;;4.51;66.53;99320.44;105978;1253;65121;-77
2023/02/01 11:00:49;;;;;;;12.00;6.30;;;;;;;4.56;65.95;99316.25;105928;1256;59637;-75
2023/02/01 11:03:25;;;;;;;12.60;6.50;;;;;;;4.60;65.22;99315.95;105990;1259;65556;-79
2023/02/01 11:05:54;;;;;;;8.60;5.70;;;;;;;4.65;64.67;99311.49;105952;1257;59542;-72
2023/02/01 11:08:25;;;;;;;11.20;6.10;;;;;;;4.70;64.71;99307.23;106009;1253;59709;-71
2023/02/01 11:11:01;;;;;;;15.00;7.50;;;;;;;4.81;64.54;99297.55;105925;1257;65948;-70
2023/02/01 11:13:31;;;;;;;13.90;6.90;;;;;;;4.97;64.65;99289.41;105772;1255;60415;-68
2023/02/01 11:16:00;;;;;;;11.60;7.00;;;;;;;5.15;64.02;99286.80;105912;1253;65484;-67
2023/02/01 11:18:30;;;;;;;13.00;7.00;;;;;;;5.29;63.47;99280.08;105856;1260;59650;-69
2023/02/01 11:20:58;;;;;;;15.10;7.10;;;;;;;5.32;62.73;99282.09;105728;1253;59730;-70
2023/02/01 11:23:27;;;;;;;12.90;7.40;;;;;;;5.29;62.32;99274.65;105593;1260;65991;-73
2023/02/01 11:26:20;;;;;;;13.40;7.00;;;;;;;5.29;62.19;99278.47;105793;1259;59650;-72
2023/02/01 11:28:58;;;;;;;14.10;7.60;;;;;;;5.31;61.92;99274.80;105767;1254;65550;-71
2023/02/01 11:31:27;;;;;;;14.00;7.80;;;;;;;5.36;61.89;99276.70;105645;1254;59783;-75
2023/02/01 11:33:59;;;;;;;14.50;8.10;;;;;;;5.47;61.86;99277.60;105917;1253;59731;-75
2023/02/01 11:36:29;;;;;;;11.90;7.10;;;;;;;5.57;61.66;99276.30;105632;1259;65896;-76
2023/02/01 11:39:13;;;;;;;14.80;7.30;;;;;;;5.66;61.48;99276.49;105630;1260;59635;-72
2023/02/01 11:41:41;;;;;;;;;;;;;;;5.72;60.58;99275.04;105795;1254;65724;-72
2023/02/01 11:44:23;;;;;;;12.10;6.70;;;;;;;5.65;59.47;99277.66;105706;1257;59733;-71
2023/02/01 11:46:51;;;;;;;12.80;7.70;;;;;;;5.46;59.15;99271.73;106292;1254;59740;-76
2023/02/01 11:49:25;;;;;;;13.30;7.20;;;;;;;5.26;58.92;99275.00;105589;1254;66006;-71
2023/02/01 11:52:34;;;;;;;12.80;7.10;;;;;;;5.09;58.95;99277.54;105427;1261;61310;-72
2023/02/01 11:55:28;;;;;;;11.40;5.70;;;;;;;4.94;58.95;99276.89;105593;1255;65557;-74
2023/02/01 11:58:05;;;;;;;13.30;6.60;;;;;;;4.82;58.34;99278.66;105563;1254;59740;-72
2023/02/01 12:01:11;;;;;;;10.10;6.20;;;;;;;4.61;57.83;99281.89;105726;1257;60148;-71
2023/02/01 12:03:54;;;;;;;9.80;5.90;;;;;;;4.36;58.05;99277.59;105391;1260;65671;-75
2023/02/01 12:06:34;;;;;;;16.60;6.20;;;;;;;4.21;58.40;99279.53;106096;1254;59891;-76
2023/02/01 12:09:29;;;;;;;13.90;6.50;;;;;;;4.13;58.41;99277.88;105749;1255;65456;-76
2023/02/01 12:12:01;;;;;;;12.10;6.60;;;;;;;4.02;58.43;99276.00;105559;1256;59749;-73
2023/02/01 12:14:37;;;;;;;19.40;9.50;;;;;;;3.93;58.60;99272.44;105761;1253;59612;-73
2023/02/01 12:17:17;;;;;;;13.40;7.50;;;;;;;3.91;58.76;99267.58;105742;1253;65057;-73
2023/02/01 12:20:04;;;;;;;12.60;6.20;;;;;;;3.89;59.05;99266.66;105749;1254;59746;-73
2023/02/01 12:22:51;;;;;;;16.90;9.40;;;;;;;3.84;59.09;99269.27;105427;1254;65584;-73
2023/02/01 12:25:36;;;;;;;10.60;5.40;;;;;;;3.77;58.97;99267.85;105609;1253;59656;-70
2023/02/01 12:28:21;;;;;;;15.10;7.50;;;;;;;3.70;58.57;99270.41;105359;1253;59718;-72
2023/02/01 12:31:13;;;;;;;8.20;4.10;;;;;;;3.67;58.32;99269.55;105811;1254;65972;-74
2023/02/01 12:34:11;;;;;;;6.70;3.50;;;;;;;3.82;58.22;99269.92;105656;1253;60015;-71
2023/02/01 12:37:13;;;;;;;7.50;3.90;;;;;;;4.07;57.64;99267.29;105730;1253;65251;-72
2023/02/01 12:39:56;;;;;;;6.20;3.80;;;;;;;4.28;56.67;99269.48;105744;1253;60585;-72
2023/02/01 12:42:27;;;;;;;9.60;3.40;;;;;;;4.27;55.84;99267.94;105605;1254;60519;-72
2023/02/01 12:45:14;;;;;;;7.10;3.50;;;;;;;4.19;55.41;99264.21;105758;1254;66433;-72
2023/02/01 12:47:52;;;;;;;6.10;2.90;;;;;;;4.05;54.96;99265.69;105656;1254;60406;-71
2023/02/01 12:50:32;;;;;;;7.20;4.00;;;;;;;3.92;54.97;99263.14;105742;1254;65739;-76
2023/02/01 12:53:45;;;;;;;7.00;3.20;;;;;;;3.84;55.21;99260.20;105753;1259;60460;-71
2023/02/01 12:56:36;;;;;;;10.00;4.10;;;;;;;3.78;55.17;99257.52;105195;1262;60511;-71
2023/02/01 12:59:17;;;;;;;8.60;4.20;;;;;;;3.72;55.17;99255.29;105217;1264;66607;-71
2023/02/01 13:01:59;;;;;;;6.80;3.80;;;;;;;3.63;55.31;99258.02;105697;1253;59847;-72
2023/02/01 13:05:03;;;;;;;7.50;4.10;;;;;;;3.54;55.76;99257.05;105912;1256;65258;-72
2023/02/01 13:07:39;;;;;;;9.00;4.10;;;;;;;3.45;56.34;99257.67;105613;1254;60359;-72
2023/02/01 13:10:27;;;;;;;10.50;5.10;;;;;;;3.37;56.77;99257.31;105596;1253;60473;-75
2023/02/01 13:13:44;;;;;;;10.60;5.30;;;;;;;3.32;56.98;99256.65;105675;1253;65455;-70
2023/02/01 13:16:28;;;;;;;8.40;4.30;;;;;;;3.24;57.35;99255.98;105132;1259;60555;-71
2023/02/01 13:19:20;;;;;;;7.60;4.70;;;;;;;3.16;57.67;99257.02;105712;1254;65596;-72
2023/02/01 13:21:51;;;;;;;10.40;5.20;;;;;;;3.10;58.22;99256.21;105752;1256;60356;-72
2023/02/01 13:24:39;;;;;;;10.30;5.50;;;;;;;3.07;58.66;99255.85;105873;1253;60563;-75
2023/02/01 13:27:11;;;;;;;11.00;5.20;;;;;;;3.07;59.10;99259.69;105661;1254;66522;-71
2023/02/01 13:29:57;;;;;;;9.70;5.40;;;;;;;3.05;59.40;99250.79;105761;1256;60634;-71
2023/02/01 13:32:55;;;;;;;11.30;5.20;;;;;;;3.03;59.74;99253.35;105793;1257;65368;-71
2023/02/01 13:36:01;;;;;;;11.70;5.90;;;;;;;3.03;60.06;99252.48;105749;1253;60463;-70
2023/02/01 13:38:51;;;;;;;12.00;6.40;;;;;;;3.01;60.14;99253.84;105685;1253;60429;-72
2023/02/01 13:41:30;;;;;;;14.00;7.40;;;;;;;2.99;60.25;99253.48;105572;1254;66441;-73
2023/02/01 13:44:01;;;;;;;10.70;6.30;;;;;;;2.96;60.31;99253.13;106109;1256;60426;-73
2023/02/01 13:46:30;;;;;;;11.80;6.80;;;;;;;2.94;60.17;99246.48;105658;1253;64646;-78
2023/02/01 13:49:00;;;;;;;11.90;6.20;;;;;;;2.92;60.43;99247.54;105908;1256;61847;-79
2023/02/01 13:51:42;;;;;;;11.70;6.10;;;;;;;2.90;60.58;99243.80;106202;1255;60477;-71
2023/02/01 13:54:39;;;;;;;13.10;6.10;;;;;;;2.86;60.75;99243.70;105851;1255;66500;-73
2023/02/01 13:57:38;;;;;;;12.10;6.30;;;;;;;2.80;60.96;99242.17;105718;1256;60641;-85
2023/02/01 14:00:30;;;;;;;16.90;7.30;;;;;;;2.77;61.17;99240.34;105979;1253;64274;-70
2023/02/01 14:03:02;;;;;;;10.10;6.20;;;;;;;2.72;61.40;99241.65;105840;1259;60450;-71
2023/02/01 14:05:30;;;;;;;14.80;5.80;;;;;;;2.69;61.50;99240.67;105844;1253;60653;-73
2023/02/01 14:08:04;;;;;;;11.10;5.20;;;;;;;2.67;61.57;99239.55;105906;1256;65416;-72
2023/02/01 14:10:48;;;;;;;10.90;4.80;;;;;;;2.66;61.61;99240.02;105987;1256;61344;-71
2023/02/01 14:13:42;;;;;;;10.00;5.00;;;;;;;2.61;61.65;99237.71;105896;1256;65254;-73
2023/02/01 14:16:12;;;;;;;8.90;4.80;;;;;;;2.55;61.64;99237.54;105834;1254;60303;-72
2023/02/01 14:18:41;;;;;;;10.90;4.80;;;;;;;2.50;61.51;99236.68;105623;1253;60540;-73
2023/02/01 14:21:15;;;;;;;9.20;4.30;;;;;;;2.43;61.42;99239.92;105972;1253;66587;-75
2023/02/01 14:23:53;;;;;;;9.60;4.90;;;;;;;2.38;61.39;99245.61;105920;1255;60408;-73
2023/02/01 14:26:28;;;;;;;11.10;4.60;;;;;;;2.34;61.42;99250.06;105774;1253;65774;-74
2023/02/01 14:28:58;;;;;;;11.00;5.80;;;;;;;2.30;61.54;99251.69;105572;1254;60441;-74
2023/02/01 14:31:43;;;;;;;12.80;5.90;;;;;;;2.26;61.67;99250.38;105900;1253;60443;-73
2023/02/01 14:34:18;;;;;;;11.00;5.30;;;;;;;2.23;61.81;99253.70;105851;1256;65502;-72
2023/02/01 14:36:52;;;;;;;11.60;6.10;;;;;;;2.20;62.01;99252.33;105865;1253;60438;-73